Cruz Bay, VI

3:15 AM AST on July 31, 2014 (GMT -0400)
Luis Munoz Marin International (TJSJ) Elev 7 ft | 18.43 °N, 66.01 °W | Change Station

Current weather conditions updated 19 minutes ago

Scattered Clouds
Scattered Clouds
79 °F
Feels Like 79 °F
N
0
Wind Variable Wind from North

Today is forecast to be Much Cooler than yesterday. Showers and thunderstorms.

Today
High -- | Low -- °F
--% Chance of Precip.
Yesterday
High -- | Low -- °F
Precip. -- in
5:56 AM 6:54 PM
Waxing Crescent, 16% visible
Pressure 29.99 in
Visibility 10.0 miles
Clouds Scattered Clouds 3700 ft
Scattered Clouds 4600 ft
Dew Point 73 °F
Humidity 82%
Rainfall 0.00 in
Snow Depth Not available.
UV 0 out of 12
Pollen Not available.
Air Quality Not available.
Flu Activity Not available.
METAR TJSJ 310656Z 00000KT 10SM SCT037 SCT046 26/23 A2999 RMK AO2 SLP155 T02610228

More Conditions Fewer Conditions

Pressure 29.99 in
Visibility 10.0 miles
Clouds Scattered Clouds 3700 ft
Scattered Clouds 4600 ft
Dew Point 73 °F
Humidity 82%
Rainfall 0.00 in
Snow Depth Not available.
UV 0 out of 12
Pollen Not available.
Air Quality Not available.
Flu Activity Not available.
METAR TJSJ 310656Z 00000KT 10SM SCT037 SCT046 26/23 A2999 RMK AO2 SLP155 T02610228

More Conditions Fewer Conditions

10-Day Weather Forecast

Almanac

Astronomy

Jul. 31, 2014 Rise Set
Actual Time 5:56 AM AST 6:54 PM AST
Civil Twilight 5:33 AM AST 7:17 PM AST
Nautical Twilight 5:06 AM AST 7:44 PM AST
Astronomical Twilight 4:38 AM AST 8:12 PM AST
Moon 9:37 AM AST 9:51 PM AST
Length of Visible Light 13h 43m
Length of Day
12h 57m
Tomorrow will be 0m 45s shorter.
Waxing Crescent, 16% of the Moon is Illuminated
Today
Waxing Crescent
Aug 3
First Quarter
Aug 10
Full
Aug 17
Last Quarter
Aug 25
New

Community

WunderPhotos

Upload Photos

1,739,251 photos uploaded!

Nearby

Snow Depth

Station Depth Elevation
No new snow has been reported.

Earthquake Activity

City Distance Mag. Time & Date
No recent earthquake activity has been reported nearby.
Minimum magnitude displayed is 2.5.

Coastal Water Temperatures

Place Temperature
Yabucoa Harbor, PR 84.0 °F
Esperanza, PR 84.0 °F
Charlotte Amalie, VI 84.9 °F

Nearby Weather Stations

Station Location Temp. Heat Index Dew Point Humidity Wind Precip. Elev Updated Type
Great Cruz Bay, St John, St John 79.1 °F 83 °F 76 °F 89% ENE  at  4.0 mph 0.00 in / hr 59 ft 3:14 AM AST Normal
Bovoni, St Thomas 80.4 °F 86 °F 75 °F 84% North  at  4.0 mph 0.00 in / hr 217 ft 3:14 AM AST Rapid Fire
Sopers Hole, Tortola 79.0 °F 83 °F 76 °F 90% East  at  2.0 mph 0.04 in / hr 36 ft 3:15 AM AST Rapid Fire
NorthSide, St Thomas 76.6 °F 77 °F 74 °F 93% ESE  at  0.0 mph 0.00 in / hr 728 ft 3:15 AM AST Rapid Fire

Show More Stations Show Fewer Stations